sensor_id;sensor_type;location;lat;lon;timestamp;P1;durP1;ratioP1;P2;durP2;ratioP2
69381;SDS011;56560;50.692;12.844;2023-01-29T00:01:40;31.17;;;11.03;;
69381;SDS011;56560;50.692;12.844;2023-01-29T00:04:06;27.35;;;10.63;;
69381;SDS011;56560;50.692;12.844;2023-01-29T00:06:32;25.63;;;9.87;;
69381;SDS011;56560;50.692;12.844;2023-01-29T00:08:58;27.17;;;9.80;;
69381;SDS011;56560;50.692;12.844;2023-01-29T00:11:24;27.33;;;10.57;;
69381;SDS011;56560;50.692;12.844;2023-01-29T00:13:50;27.83;;;10.23;;
69381;SDS011;56560;50.692;12.844;2023-01-29T00:16:16;30.17;;;10.07;;
69381;SDS011;56560;50.692;12.844;2023-01-29T00:18:42;25.17;;;9.60;;
69381;SDS011;56560;50.692;12.844;2023-01-29T00:21:08;24.30;;;9.35;;
69381;SDS011;56560;50.692;12.844;2023-01-29T00:23:35;26.80;;;10.37;;
69381;SDS011;56560;50.692;12.844;2023-01-29T00:26:00;24.50;;;8.98;;
69381;SDS011;56560;50.692;12.844;2023-01-29T00:28:26;26.33;;;9.60;;
69381;SDS011;56560;50.692;12.844;2023-01-29T00:30:51;22.48;;;8.38;;
69381;SDS011;56560;50.692;12.844;2023-01-29T00:33:17;25.33;;;9.40;;
69381;SDS011;56560;50.692;12.844;2023-01-29T00:35:43;24.40;;;8.43;;
69381;SDS011;56560;50.692;12.844;2023-01-29T00:38:08;22.73;;;8.45;;
69381;SDS011;56560;50.692;12.844;2023-01-29T00:40:36;24.57;;;9.57;;
69381;SDS011;56560;50.692;12.844;2023-01-29T00:43:21;23.30;;;8.00;;
69381;SDS011;56560;50.692;12.844;2023-01-29T00:46:05;19.05;;;7.43;;
69381;SDS011;56560;50.692;12.844;2023-01-29T00:48:31;24.98;;;9.05;;
69381;SDS011;56560;50.692;12.844;2023-01-29T00:50:58;20.95;;;8.23;;
69381;SDS011;56560;50.692;12.844;2023-01-29T00:53:24;25.70;;;9.63;;
69381;SDS011;56560;50.692;12.844;2023-01-29T00:55:49;23.00;;;8.33;;
69381;SDS011;56560;50.692;12.844;2023-01-29T00:58:15;22.60;;;8.13;;
69381;SDS011;56560;50.692;12.844;2023-01-29T01:00:46;23.57;;;9.13;;
69381;SDS011;56560;50.692;12.844;2023-01-29T01:03:16;25.23;;;8.93;;
69381;SDS011;56560;50.692;12.844;2023-01-29T01:05:42;26.90;;;10.00;;
69381;SDS011;56560;50.692;12.844;2023-01-29T01:08:08;18.45;;;6.93;;
69381;SDS011;56560;50.692;12.844;2023-01-29T01:11:03;26.27;;;9.27;;
69381;SDS011;56560;50.692;12.844;2023-01-29T01:13:31;27.87;;;10.37;;
69381;SDS011;56560;50.692;12.844;2023-01-29T01:15:57;29.05;;;11.15;;
69381;SDS011;56560;50.692;12.844;2023-01-29T01:18:23;29.33;;;10.88;;
69381;SDS011;56560;50.692;12.844;2023-01-29T01:20:49;28.73;;;11.30;;
69381;SDS011;56560;50.692;12.844;2023-01-29T01:23:23;28.47;;;10.67;;
69381;SDS011;56560;50.692;12.844;2023-01-29T01:25:49;28.65;;;10.65;;
69381;SDS011;56560;50.692;12.844;2023-01-29T01:28:15;29.23;;;10.75;;
69381;SDS011;56560;50.692;12.844;2023-01-29T01:30:41;28.53;;;10.23;;
69381;SDS011;56560;50.692;12.844;2023-01-29T01:33:06;30.63;;;11.27;;
69381;SDS011;56560;50.692;12.844;2023-01-29T01:35:32;29.67;;;11.33;;
69381;SDS011;56560;50.692;12.844;2023-01-29T01:37:58;29.85;;;10.95;;
69381;SDS011;56560;50.692;12.844;2023-01-29T01:40:24;29.38;;;10.23;;
69381;SDS011;56560;50.692;12.844;2023-01-29T01:42:51;28.63;;;10.82;;
69381;SDS011;56560;50.692;12.844;2023-01-29T01:47:48;23.33;;;8.63;;
69381;SDS011;56560;50.692;12.844;2023-01-29T01:52:56;21.10;;;7.33;;
69381;SDS011;56560;50.692;12.844;2023-01-29T01:55:26;27.42;;;9.60;;
69381;SDS011;56560;50.692;12.844;2023-01-29T01:57:55;25.90;;;8.50;;
69381;SDS011;56560;50.692;12.844;2023-01-29T02:00:37;27.80;;;9.43;;
69381;SDS011;56560;50.692;12.844;2023-01-29T02:03:03;20.73;;;7.70;;
69381;SDS011;56560;50.692;12.844;2023-01-29T02:05:49;18.47;;;5.83;;
69381;SDS011;56560;50.692;12.844;2023-01-29T02:11:59;19.83;;;7.68;;
69381;SDS011;56560;50.692;12.844;2023-01-29T02:14:29;25.13;;;9.07;;
69381;SDS011;56560;50.692;12.844;2023-01-29T02:16:56;26.52;;;9.30;;
69381;SDS011;56560;50.692;12.844;2023-01-29T02:19:38;22.37;;;7.43;;
69381;SDS011;56560;50.692;12.844;2023-01-29T02:25:15;21.05;;;7.38;;
69381;SDS011;56560;50.692;12.844;2023-01-29T02:30:46;21.60;;;7.47;;
69381;SDS011;56560;50.692;12.844;2023-01-29T02:33:40;16.00;;;5.30;;
69381;SDS011;56560;50.692;12.844;2023-01-29T02:36:46;20.70;;;7.40;;
69381;SDS011;56560;50.692;12.844;2023-01-29T02:39:30;17.40;;;6.13;;
69381;SDS011;56560;50.692;12.844;2023-01-29T02:42:01;20.58;;;6.82;;
69381;SDS011;56560;50.692;12.844;2023-01-29T02:44:37;17.02;;;6.57;;
69381;SDS011;56560;50.692;12.844;2023-01-29T02:47:23;10.50;;;4.13;;
69381;SDS011;56560;50.692;12.844;2023-01-29T02:50:28;19.95;;;7.25;;
69381;SDS011;56560;50.692;12.844;2023-01-29T02:52:56;19.40;;;6.63;;
69381;SDS011;56560;50.692;12.844;2023-01-29T02:55:50;20.58;;;8.05;;
69381;SDS011;56560;50.692;12.844;2023-01-29T02:58:23;11.68;;;4.05;;
69381;SDS011;56560;50.692;12.844;2023-01-29T03:01:00;20.10;;;6.87;;
69381;SDS011;56560;50.692;12.844;2023-01-29T03:03:35;21.73;;;7.18;;
69381;SDS011;56560;50.692;12.844;2023-01-29T03:06:30;18.48;;;6.88;;
69381;SDS011;56560;50.692;12.844;2023-01-29T03:09:33;20.75;;;7.43;;
69381;SDS011;56560;50.692;12.844;2023-01-29T03:12:12;22.40;;;8.30;;
69381;SDS011;56560;50.692;12.844;2023-01-29T03:15:02;21.70;;;7.90;;
69381;SDS011;56560;50.692;12.844;2023-01-29T03:20:18;24.55;;;8.20;;
69381;SDS011;56560;50.692;12.844;2023-01-29T03:22:50;23.48;;;8.20;;
69381;SDS011;56560;50.692;12.844;2023-01-29T03:25:20;22.20;;;7.65;;
69381;SDS011;56560;50.692;12.844;2023-01-29T03:28:06;22.13;;;7.23;;
69381;SDS011;56560;50.692;12.844;2023-01-29T03:30:55;22.38;;;8.27;;
69381;SDS011;56560;50.692;12.844;2023-01-29T03:33:53;24.30;;;8.90;;
69381;SDS011;56560;50.692;12.844;2023-01-29T03:36:38;18.20;;;6.63;;
69381;SDS011;56560;50.692;12.844;2023-01-29T03:39:12;22.50;;;8.63;;
69381;SDS011;56560;50.692;12.844;2023-01-29T03:41:56;24.30;;;8.87;;
69381;SDS011;56560;50.692;12.844;2023-01-29T03:46:57;25.17;;;8.70;;
69381;SDS011;56560;50.692;12.844;2023-01-29T03:50:30;21.55;;;8.43;;
69381;SDS011;56560;50.692;12.844;2023-01-29T03:55:15;22.13;;;8.48;;
69381;SDS011;56560;50.692;12.844;2023-01-29T04:00:19;17.13;;;6.13;;
69381;SDS011;56560;50.692;12.844;2023-01-29T04:02:50;20.65;;;7.53;;
69381;SDS011;56560;50.692;12.844;2023-01-29T04:05:43;17.20;;;6.03;;
69381;SDS011;56560;50.692;12.844;2023-01-29T04:08:19;22.50;;;7.95;;
69381;SDS011;56560;50.692;12.844;2023-01-29T04:10:50;23.52;;;8.30;;
69381;SDS011;56560;50.692;12.844;2023-01-29T04:13:20;22.45;;;7.13;;
69381;SDS011;56560;50.692;12.844;2023-01-29T04:15:52;21.00;;;6.93;;
69381;SDS011;56560;50.692;12.844;2023-01-29T04:18:20;22.63;;;7.63;;
69381;SDS011;56560;50.692;12.844;2023-01-29T04:20:46;20.95;;;6.93;;
69381;SDS011;56560;50.692;12.844;2023-01-29T04:23:23;17.92;;;6.97;;
69381;SDS011;56560;50.692;12.844;2023-01-29T04:25:58;13.60;;;4.43;;
69381;SDS011;56560;50.692;12.844;2023-01-29T04:29:13;19.52;;;5.70;;
69381;SDS011;56560;50.692;12.844;2023-01-29T04:31:23;16.08;;;6.10;;
69381;SDS011;56560;50.692;12.844;2023-01-29T04:41:58;13.65;;;4.55;;
69381;SDS011;56560;50.692;12.844;2023-01-29T04:55:19;7.80;;;3.05;;
69381;SDS011;56560;50.692;12.844;2023-01-29T04:58:01;15.25;;;4.28;;
69381;SDS011;56560;50.692;12.844;2023-01-29T05:00:34;18.27;;;5.50;;
69381;SDS011;56560;50.692;12.844;2023-01-29T05:03:04;15.15;;;5.43;;
69381;SDS011;56560;50.692;12.844;2023-01-29T05:05:33;22.00;;;7.00;;
69381;SDS011;56560;50.692;12.844;2023-01-29T05:08:00;24.92;;;8.25;;
69381;SDS011;56560;50.692;12.844;2023-01-29T05:10:26;17.35;;;5.00;;
69381;SDS011;56560;50.692;12.844;2023-01-29T05:12:59;22.85;;;7.55;;
69381;SDS011;56560;50.692;12.844;2023-01-29T05:15:36;16.73;;;6.07;;
69381;SDS011;56560;50.692;12.844;2023-01-29T05:18:04;21.17;;;6.53;;
69381;SDS011;56560;50.692;12.844;2023-01-29T05:20:32;19.42;;;6.80;;
69381;SDS011;56560;50.692;12.844;2023-01-29T05:23:01;16.77;;;6.03;;
69381;SDS011;56560;50.692;12.844;2023-01-29T05:25:31;17.83;;;5.72;;
69381;SDS011;56560;50.692;12.844;2023-01-29T05:27:57;19.00;;;6.73;;
69381;SDS011;56560;50.692;12.844;2023-01-29T05:30:36;18.00;;;6.18;;
69381;SDS011;56560;50.692;12.844;2023-01-29T05:33:03;17.08;;;6.25;;
69381;SDS011;56560;50.692;12.844;2023-01-29T05:35:34;19.92;;;6.93;;
69381;SDS011;56560;50.692;12.844;2023-01-29T05:38:00;22.17;;;7.60;;
69381;SDS011;56560;50.692;12.844;2023-01-29T05:40:26;21.13;;;6.97;;
69381;SDS011;56560;50.692;12.844;2023-01-29T05:42:51;9.73;;;3.42;;
69381;SDS011;56560;50.692;12.844;2023-01-29T05:45:17;18.97;;;6.77;;
69381;SDS011;56560;50.692;12.844;2023-01-29T05:47:43;23.02;;;8.00;;
69381;SDS011;56560;50.692;12.844;2023-01-29T05:50:09;24.45;;;7.78;;
69381;SDS011;56560;50.692;12.844;2023-01-29T05:52:35;18.33;;;6.95;;
69381;SDS011;56560;50.692;12.844;2023-01-29T05:55:01;16.17;;;13.77;;
69381;SDS011;56560;50.692;12.844;2023-01-29T05:57:27;65.55;;;56.58;;
69381;SDS011;56560;50.692;12.844;2023-01-29T05:59:52;16.00;;;7.67;;
69381;SDS011;56560;50.692;12.844;2023-01-29T06:02:18;1999.90;;;999.90;;
69381;SDS011;56560;50.692;12.844;2023-01-29T06:04:45;12.00;;;3.70;;
69381;SDS011;56560;50.692;12.844;2023-01-29T06:07:10;7.07;;;6.35;;
69381;SDS011;56560;50.692;12.844;2023-01-29T06:09:36;1999.90;;;999.90;;
69381;SDS011;56560;50.692;12.844;2023-01-29T06:12:02;9.40;;;8.52;;
69381;SDS011;56560;50.692;12.844;2023-01-29T06:14:30;14.67;;;13.37;;
69381;SDS011;56560;50.692;12.844;2023-01-29T06:16:56;1.75;;;1.65;;
69381;SDS011;56560;50.692;12.844;2023-01-29T06:19:21;1.52;;;1.42;;
69381;SDS011;56560;50.692;12.844;2023-01-29T06:21:47;52.77;;;48.60;;
69381;SDS011;56560;50.692;12.844;2023-01-29T06:24:13;7.70;;;6.90;;
69381;SDS011;56560;50.692;12.844;2023-01-29T06:26:38;7.40;;;6.60;;
69381;SDS011;56560;50.692;12.844;2023-01-29T06:29:04;7.60;;;6.80;;
69381;SDS011;56560;50.692;12.844;2023-01-29T06:31:30;4.18;;;3.78;;
69381;SDS011;56560;50.692;12.844;2023-01-29T06:33:56;3.50;;;3.20;;
69381;SDS011;56560;50.692;12.844;2023-01-29T06:36:21;3.90;;;3.50;;
69381;SDS011;56560;50.692;12.844;2023-01-29T06:38:47;4.77;;;4.27;;
69381;SDS011;56560;50.692;12.844;2023-01-29T06:41:16;4.10;;;3.70;;
69381;SDS011;56560;50.692;12.844;2023-01-29T06:43:44;4.57;;;4.10;;
69381;SDS011;56560;50.692;12.844;2023-01-29T06:46:09;5.75;;;5.15;;
69381;SDS011;56560;50.692;12.844;2023-01-29T06:48:35;4.50;;;4.05;;
69381;SDS011;56560;50.692;12.844;2023-01-29T06:51:05;5.13;;;4.63;;
69381;SDS011;56560;50.692;12.844;2023-01-29T06:53:32;5.35;;;4.85;;
69381;SDS011;56560;50.692;12.844;2023-01-29T06:55:58;4.82;;;4.32;;
69381;SDS011;56560;50.692;12.844;2023-01-29T06:58:24;6.07;;;5.47;;
69381;SDS011;56560;50.692;12.844;2023-01-29T07:00:50;6.53;;;5.83;;
69381;SDS011;56560;50.692;12.844;2023-01-29T07:03:15;4.95;;;4.45;;
69381;SDS011;56560;50.692;12.844;2023-01-29T07:05:41;5.93;;;5.32;;
69381;SDS011;56560;50.692;12.844;2023-01-29T07:08:07;6.17;;;5.53;;
69381;SDS011;56560;50.692;12.844;2023-01-29T07:10:33;1999.90;;;999.90;;
69381;SDS011;56560;50.692;12.844;2023-01-29T07:13:00;1999.90;;;999.90;;
69381;SDS011;56560;50.692;12.844;2023-01-29T07:15:26;1999.90;;;999.90;;
69381;SDS011;56560;50.692;12.844;2023-01-29T07:17:58;1999.90;;;999.90;;
69381;SDS011;56560;50.692;12.844;2023-01-29T07:20:26;1999.90;;;999.90;;
69381;SDS011;56560;50.692;12.844;2023-01-29T07:22:52;1999.90;;;999.90;;
69381;SDS011;56560;50.692;12.844;2023-01-29T07:25:21;1999.90;;;999.90;;
69381;SDS011;56560;50.692;12.844;2023-01-29T07:27:46;1999.90;;;999.90;;
69381;SDS011;56560;50.692;12.844;2023-01-29T07:30:13;1999.90;;;999.90;;
69381;SDS011;56560;50.692;12.844;2023-01-29T07:32:39;1999.90;;;999.90;;
69381;SDS011;56560;50.692;12.844;2023-01-29T07:35:05;1999.90;;;999.90;;
69381;SDS011;56560;50.692;12.844;2023-01-29T07:37:34;1999.90;;;999.90;;
69381;SDS011;56560;50.692;12.844;2023-01-29T07:40:00;1999.90;;;999.90;;
69381;SDS011;56560;50.692;12.844;2023-01-29T07:42:25;1999.90;;;999.90;;
69381;SDS011;56560;50.692;12.844;2023-01-29T07:44:51;1999.90;;;999.90;;
69381;SDS011;56560;50.692;12.844;2023-01-29T07:47:16;1999.90;;;999.90;;
69381;SDS011;56560;50.692;12.844;2023-01-29T07:49:42;1999.90;;;999.90;;
69381;SDS011;56560;50.692;12.844;2023-01-29T07:52:08;1999.90;;;999.90;;
69381;SDS011;56560;50.692;12.844;2023-01-29T07:54:33;1999.90;;;999.90;;
69381;SDS011;56560;50.692;12.844;2023-01-29T07:57:02;1999.90;;;999.90;;
69381;SDS011;56560;50.692;12.844;2023-01-29T07:59:27;1999.90;;;999.90;;
69381;SDS011;56560;50.692;12.844;2023-01-29T08:01:53;1999.90;;;999.90;;
69381;SDS011;56560;50.692;12.844;2023-01-29T08:04:18;1999.90;;;999.90;;
69381;SDS011;56560;50.692;12.844;2023-01-29T08:06:44;1999.90;;;999.90;;
69381;SDS011;56560;50.692;12.844;2023-01-29T08:09:10;1999.90;;;999.90;;
69381;SDS011;56560;50.692;12.844;2023-01-29T08:11:36;1999.90;;;999.90;;
69381;SDS011;56560;50.692;12.844;2023-01-29T08:14:02;1999.90;;;999.90;;
69381;SDS011;56560;50.692;12.844;2023-01-29T08:16:27;1999.90;;;999.90;;
69381;SDS011;56560;50.692;12.844;2023-01-29T08:18:53;1999.90;;;999.90;;
69381;SDS011;56560;50.692;12.844;2023-01-29T08:21:18;1999.90;;;999.90;;
69381;SDS011;56560;50.692;12.844;2023-01-29T08:23:44;1999.90;;;999.90;;
69381;SDS011;56560;50.692;12.844;2023-01-29T08:26:10;1999.90;;;999.90;;
69381;SDS011;56560;50.692;12.844;2023-01-29T08:28:35;1999.90;;;999.90;;
69381;SDS011;56560;50.692;12.844;2023-01-29T08:31:02;41.42;;;37.13;;
69381;SDS011;56560;50.692;12.844;2023-01-29T08:33:28;6.63;;;5.93;;
69381;SDS011;56560;50.692;12.844;2023-01-29T08:35:55;9.47;;;8.57;;
69381;SDS011;56560;50.692;12.844;2023-01-29T08:38:20;9.25;;;8.35;;
69381;SDS011;56560;50.692;12.844;2023-01-29T08:40:46;9.13;;;8.23;;
69381;SDS011;56560;50.692;12.844;2023-01-29T08:43:12;8.93;;;8.03;;
69381;SDS011;56560;50.692;12.844;2023-01-29T08:45:39;8.77;;;7.88;;
69381;SDS011;56560;50.692;12.844;2023-01-29T08:48:06;10.02;;;9.13;;
69381;SDS011;56560;50.692;12.844;2023-01-29T08:50:32;8.53;;;7.73;;
69381;SDS011;56560;50.692;12.844;2023-01-29T08:52:59;8.43;;;7.63;;
69381;SDS011;56560;50.692;12.844;2023-01-29T08:55:26;8.55;;;7.75;;
69381;SDS011;56560;50.692;12.844;2023-01-29T08:57:52;8.77;;;7.88;;
69381;SDS011;56560;50.692;12.844;2023-01-29T09:00:18;8.80;;;7.90;;
69381;SDS011;56560;50.692;12.844;2023-01-29T09:02:44;8.82;;;7.93;;
69381;SDS011;56560;50.692;12.844;2023-01-29T09:05:09;8.40;;;7.60;;
69381;SDS011;56560;50.692;12.844;2023-01-29T09:07:35;8.55;;;7.72;;
69381;SDS011;56560;50.692;12.844;2023-01-29T09:10:01;9.05;;;8.15;;
69381;SDS011;56560;50.692;12.844;2023-01-29T09:12:27;9.05;;;8.15;;
69381;SDS011;56560;50.692;12.844;2023-01-29T09:14:53;9.23;;;8.32;;
69381;SDS011;56560;50.692;12.844;2023-01-29T09:17:21;8.83;;;7.93;;
69381;SDS011;56560;50.692;12.844;2023-01-29T09:19:47;8.40;;;7.60;;
69381;SDS011;56560;50.692;12.844;2023-01-29T09:22:12;8.67;;;7.83;;
69381;SDS011;56560;50.692;12.844;2023-01-29T09:24:38;8.75;;;7.85;;
69381;SDS011;56560;50.692;12.844;2023-01-29T09:27:04;8.53;;;7.73;;
69381;SDS011;56560;50.692;12.844;2023-01-29T09:29:30;8.30;;;7.50;;
69381;SDS011;56560;50.692;12.844;2023-01-29T09:31:56;8.85;;;7.95;;
69381;SDS011;56560;50.692;12.844;2023-01-29T09:34:21;8.95;;;8.05;;
69381;SDS011;56560;50.692;12.844;2023-01-29T09:36:47;8.10;;;7.30;;
69381;SDS011;56560;50.692;12.844;2023-01-29T09:39:12;8.40;;;7.60;;
69381;SDS011;56560;50.692;12.844;2023-01-29T09:41:52;8.47;;;7.67;;
69381;SDS011;56560;50.692;12.844;2023-01-29T09:47:09;8.75;;;7.88;;
69381;SDS011;56560;50.692;12.844;2023-01-29T09:49:39;8.57;;;7.77;;
69381;SDS011;56560;50.692;12.844;2023-01-29T09:57:28;8.02;;;7.22;;
69381;SDS011;56560;50.692;12.844;2023-01-29T10:00:02;8.40;;;7.60;;
69381;SDS011;56560;50.692;12.844;2023-01-29T10:05:17;7.80;;;7.00;;
69381;SDS011;56560;50.692;12.844;2023-01-29T10:13:25;8.63;;;7.80;;
69381;SDS011;56560;50.692;12.844;2023-01-29T10:16:17;8.00;;;7.20;;
69381;SDS011;56560;50.692;12.844;2023-01-29T10:25:09;7.97;;;7.17;;
69381;SDS011;56560;50.692;12.844;2023-01-29T10:27:39;7.72;;;6.93;;
69381;SDS011;56560;50.692;12.844;2023-01-29T10:33:00;8.00;;;7.20;;
69381;SDS011;56560;50.692;12.844;2023-01-29T10:35:32;8.20;;;7.40;;
69381;SDS011;56560;50.692;12.844;2023-01-29T10:43:31;8.02;;;7.22;;
69381;SDS011;56560;50.692;12.844;2023-01-29T10:46:31;8.32;;;7.53;;
69381;SDS011;56560;50.692;12.844;2023-01-29T10:54:22;8.95;;;8.05;;
69381;SDS011;56560;50.692;12.844;2023-01-29T10:56:55;8.10;;;7.30;;
69381;SDS011;56560;50.692;12.844;2023-01-29T11:02:22;8.75;;;7.88;;
69381;SDS011;56560;50.692;12.844;2023-01-29T11:04:47;8.33;;;7.53;;
69381;SDS011;56560;50.692;12.844;2023-01-29T11:07:14;8.10;;;7.30;;
69381;SDS011;56560;50.692;12.844;2023-01-29T11:09:47;8.53;;;7.73;;
69381;SDS011;56560;50.692;12.844;2023-01-29T11:12:27;8.02;;;7.22;;
69381;SDS011;56560;50.692;12.844;2023-01-29T11:17:31;7.75;;;6.95;;
69381;SDS011;56560;50.692;12.844;2023-01-29T11:19:57;7.53;;;6.73;;
69381;SDS011;56560;50.692;12.844;2023-01-29T11:22:24;7.50;;;6.70;;
69381;SDS011;56560;50.692;12.844;2023-01-29T11:25:08;9.80;;;8.90;;
69381;SDS011;56560;50.692;12.844;2023-01-29T11:27:34;8.00;;;7.20;;
69381;SDS011;56560;50.692;12.844;2023-01-29T11:30:29;7.78;;;6.97;;
69381;SDS011;56560;50.692;12.844;2023-01-29T11:32:57;7.85;;;7.05;;
69381;SDS011;56560;50.692;12.844;2023-01-29T11:35:42;7.47;;;6.68;;
69381;SDS011;56560;50.692;12.844;2023-01-29T11:40:39;8.50;;;7.70;;
69381;SDS011;56560;50.692;12.844;2023-01-29T11:45:43;7.75;;;6.95;;
69381;SDS011;56560;50.692;12.844;2023-01-29T11:48:13;8.13;;;7.33;;
69381;SDS011;56560;50.692;12.844;2023-01-29T11:50:54;7.57;;;6.78;;
69381;SDS011;56560;50.692;12.844;2023-01-29T11:53:43;8.85;;;7.97;;
69381;SDS011;56560;50.692;12.844;2023-01-29T11:56:26;7.53;;;6.72;;
69381;SDS011;56560;50.692;12.844;2023-01-29T11:58:58;8.10;;;7.30;;
69381;SDS011;56560;50.692;12.844;2023-01-29T12:01:35;8.20;;;7.40;;
69381;SDS011;56560;50.692;12.844;2023-01-29T12:04:17;7.55;;;6.75;;
69381;SDS011;56560;50.692;12.844;2023-01-29T12:06:45;7.90;;;7.10;;
69381;SDS011;56560;50.692;12.844;2023-01-29T12:09:16;8.35;;;7.55;;
69381;SDS011;56560;50.692;12.844;2023-01-29T12:11:45;7.50;;;6.70;;
69381;SDS011;56560;50.692;12.844;2023-01-29T12:14:22;8.17;;;7.37;;
69381;SDS011;56560;50.692;12.844;2023-01-29T12:17:07;7.78;;;6.97;;
69381;SDS011;56560;50.692;12.844;2023-01-29T12:19:52;8.02;;;7.22;;
69381;SDS011;56560;50.692;12.844;2023-01-29T12:22:26;9.07;;;8.18;;
69381;SDS011;56560;50.692;12.844;2023-01-29T12:25:21;8.18;;;7.38;;
69381;SDS011;56560;50.692;12.844;2023-01-29T12:28:18;9.23;;;8.33;;
69381;SDS011;56560;50.692;12.844;2023-01-29T12:33:48;7.47;;;6.68;;
69381;SDS011;56560;50.692;12.844;2023-01-29T12:36:26;8.95;;;8.07;;
69381;SDS011;56560;50.692;12.844;2023-01-29T12:39:07;7.32;;;6.60;;
69381;SDS011;56560;50.692;12.844;2023-01-29T12:41:42;8.60;;;7.80;;
69381;SDS011;56560;50.692;12.844;2023-01-29T12:44:15;8.20;;;7.40;;
69381;SDS011;56560;50.692;12.844;2023-01-29T12:46:46;7.18;;;6.47;;
69381;SDS011;56560;50.692;12.844;2023-01-29T12:49:22;8.63;;;7.82;;
69381;SDS011;56560;50.692;12.844;2023-01-29T12:52:08;7.30;;;6.57;;
69381;SDS011;56560;50.692;12.844;2023-01-29T12:54:49;8.23;;;7.43;;
69381;SDS011;56560;50.692;12.844;2023-01-29T13:00:21;7.90;;;7.10;;
69381;SDS011;56560;50.692;12.844;2023-01-29T13:03:07;8.45;;;7.65;;
69381;SDS011;56560;50.692;12.844;2023-01-29T13:05:58;7.38;;;6.68;;
69381;SDS011;56560;50.692;12.844;2023-01-29T13:08:35;8.37;;;7.57;;
69381;SDS011;56560;50.692;12.844;2023-01-29T13:11:39;7.85;;;7.05;;
69381;SDS011;56560;50.692;12.844;2023-01-29T13:14:00;8.10;;;7.30;;
69381;SDS011;56560;50.692;12.844;2023-01-29T13:16:36;8.35;;;7.55;;
69381;SDS011;56560;50.692;12.844;2023-01-29T13:19:06;8.38;;;7.57;;
69381;SDS011;56560;50.692;12.844;2023-01-29T13:21:41;8.83;;;8.00;;
69381;SDS011;56560;50.692;12.844;2023-01-29T13:24:15;7.95;;;7.15;;
69381;SDS011;56560;50.692;12.844;2023-01-29T13:26:44;7.40;;;6.60;;
69381;SDS011;56560;50.692;12.844;2023-01-29T13:29:23;8.15;;;7.35;;
69381;SDS011;56560;50.692;12.844;2023-01-29T13:31:52;6.63;;;5.90;;
69381;SDS011;56560;50.692;12.844;2023-01-29T13:34:33;8.37;;;7.57;;
69381;SDS011;56560;50.692;12.844;2023-01-29T13:37:11;8.32;;;7.53;;
69381;SDS011;56560;50.692;12.844;2023-01-29T13:40:17;7.72;;;6.93;;
69381;SDS011;56560;50.692;12.844;2023-01-29T13:42:53;8.50;;;7.70;;
69381;SDS011;56560;50.692;12.844;2023-01-29T13:47:53;7.23;;;6.53;;
69381;SDS011;56560;50.692;12.844;2023-01-29T13:50:38;8.10;;;7.30;;
69381;SDS011;56560;50.692;12.844;2023-01-29T13:53:06;7.40;;;6.60;;
69381;SDS011;56560;50.692;12.844;2023-01-29T13:55:43;8.48;;;7.68;;
69381;SDS011;56560;50.692;12.844;2023-01-29T13:58:14;7.37;;;6.67;;
69381;SDS011;56560;50.692;12.844;2023-01-29T14:10:39;6.80;;;6.10;;
69381;SDS011;56560;50.692;12.844;2023-01-29T14:15:45;6.78;;;6.07;;
69381;SDS011;56560;50.692;12.844;2023-01-29T14:18:33;7.95;;;7.15;;
69381;SDS011;56560;50.692;12.844;2023-01-29T14:21:04;7.38;;;6.68;;
69381;SDS011;56560;50.692;12.844;2023-01-29T14:26:25;7.27;;;6.57;;
69381;SDS011;56560;50.692;12.844;2023-01-29T14:31:28;7.45;;;6.70;;
69381;SDS011;56560;50.692;12.844;2023-01-29T14:34:14;6.87;;;6.17;;
69381;SDS011;56560;50.692;12.844;2023-01-29T14:36:44;6.43;;;5.78;;
69381;SDS011;56560;50.692;12.844;2023-01-29T14:39:19;7.72;;;6.93;;
69381;SDS011;56560;50.692;12.844;2023-01-29T14:41:48;6.90;;;6.20;;
69381;SDS011;56560;50.692;12.844;2023-01-29T14:52:19;5.65;;;5.05;;
69381;SDS011;56560;50.692;12.844;2023-01-29T14:54:48;6.53;;;5.85;;
69381;SDS011;56560;50.692;12.844;2023-01-29T14:57:16;7.20;;;6.50;;
69381;SDS011;56560;50.692;12.844;2023-01-29T14:59:45;6.87;;;6.17;;
69381;SDS011;56560;50.692;12.844;2023-01-29T15:02:21;6.72;;;6.03;;
69381;SDS011;56560;50.692;12.844;2023-01-29T15:04:54;6.78;;;6.07;;
69381;SDS011;56560;50.692;12.844;2023-01-29T15:07:28;6.72;;;6.03;;
69381;SDS011;56560;50.692;12.844;2023-01-29T15:10:05;6.63;;;5.95;;
69381;SDS011;56560;50.692;12.844;2023-01-29T15:13:22;5.97;;;5.37;;
69381;SDS011;56560;50.692;12.844;2023-01-29T15:15:59;6.47;;;5.78;;
69381;SDS011;56560;50.692;12.844;2023-01-29T15:21:02;7.57;;;6.80;;
69381;SDS011;56560;50.692;12.844;2023-01-29T15:23:41;6.50;;;5.85;;
69381;SDS011;56560;50.692;12.844;2023-01-29T15:26:12;6.10;;;5.50;;
69381;SDS011;56560;50.692;12.844;2023-01-29T15:28:44;6.63;;;5.93;;
69381;SDS011;56560;50.692;12.844;2023-01-29T15:31:18;6.93;;;6.23;;
69381;SDS011;56560;50.692;12.844;2023-01-29T15:33:44;6.00;;;5.40;;
69381;SDS011;56560;50.692;12.844;2023-01-29T15:36:20;6.72;;;6.03;;
69381;SDS011;56560;50.692;12.844;2023-01-29T15:38:48;6.13;;;5.53;;
69381;SDS011;56560;50.692;12.844;2023-01-29T15:41:48;6.07;;;5.47;;
69381;SDS011;56560;50.692;12.844;2023-01-29T15:44:22;7.03;;;6.32;;
69381;SDS011;56560;50.692;12.844;2023-01-29T15:46:49;6.35;;;5.72;;
69381;SDS011;56560;50.692;12.844;2023-01-29T15:49:28;5.93;;;5.32;;
69381;SDS011;56560;50.692;12.844;2023-01-29T15:52:00;5.55;;;4.95;;
69381;SDS011;56560;50.692;12.844;2023-01-29T15:54:30;6.27;;;5.67;;
69381;SDS011;56560;50.692;12.844;2023-01-29T15:56:58;5.80;;;5.20;;
69381;SDS011;56560;50.692;12.844;2023-01-29T15:59:25;6.53;;;5.82;;
69381;SDS011;56560;50.692;12.844;2023-01-29T16:04:55;6.20;;;5.60;;
69381;SDS011;56560;50.692;12.844;2023-01-29T16:07:21;6.57;;;5.87;;
69381;SDS011;56560;50.692;12.844;2023-01-29T16:09:47;5.85;;;5.25;;
69381;SDS011;56560;50.692;12.844;2023-01-29T16:12:15;6.45;;;5.80;;
69381;SDS011;56560;50.692;12.844;2023-01-29T16:14:40;6.23;;;5.63;;
69381;SDS011;56560;50.692;12.844;2023-01-29T16:19:58;5.75;;;5.15;;
69381;SDS011;56560;50.692;12.844;2023-01-29T16:22:25;6.67;;;5.97;;
69381;SDS011;56560;50.692;12.844;2023-01-29T16:24:56;6.28;;;5.68;;
69381;SDS011;56560;50.692;12.844;2023-01-29T16:27:26;6.32;;;5.70;;
69381;SDS011;56560;50.692;12.844;2023-01-29T16:29:54;5.90;;;5.30;;
69381;SDS011;56560;50.692;12.844;2023-01-29T16:32:20;5.57;;;4.97;;
69381;SDS011;56560;50.692;12.844;2023-01-29T16:34:45;5.93;;;5.32;;
69381;SDS011;56560;50.692;12.844;2023-01-29T16:37:20;6.67;;;5.97;;
69381;SDS011;56560;50.692;12.844;2023-01-29T16:39:47;5.60;;;5.00;;
69381;SDS011;56560;50.692;12.844;2023-01-29T16:44:49;7.03;;;6.32;;
69381;SDS011;56560;50.692;12.844;2023-01-29T16:47:38;5.90;;;5.30;;
69381;SDS011;56560;50.692;12.844;2023-01-29T16:53:19;6.18;;;5.57;;
69381;SDS011;56560;50.692;12.844;2023-01-29T16:55:47;5.80;;;5.20;;
69381;SDS011;56560;50.692;12.844;2023-01-29T16:58:20;6.97;;;6.28;;
69381;SDS011;56560;50.692;12.844;2023-01-29T17:00:53;5.45;;;4.90;;
69381;SDS011;56560;50.692;12.844;2023-01-29T17:03:20;6.23;;;5.63;;
69381;SDS011;56560;50.692;12.844;2023-01-29T17:05:48;6.00;;;5.40;;
69381;SDS011;56560;50.692;12.844;2023-01-29T17:08:24;6.15;;;5.55;;
69381;SDS011;56560;50.692;12.844;2023-01-29T17:10:54;6.70;;;6.00;;